Time;durP1;ratioP1;P1;durP2;ratioP2;P2;SDS_P1;SDS_P2;PMS_P1;PMS_P2;Temp;Humidity;BMP_temperature;BMP_pressure;BME280_temperature;BME280_humidity;BME280_pressure;Samples;Min_cycle;Max_cycle;Signal;HPM_P1;HPM_P2
2022/10/11 00:00:25;;;;;;;4.40;2.07;;;9.10;99.90;;;;;;5073264;28;20408;-72
2022/10/11 00:02:50;;;;;;;10.90;2.10;;;9.10;99.90;;;;;;5073383;28;20523;-72
2022/10/11 00:05:16;;;;;;;4.63;2.50;;;9.10;99.90;;;;;;5072607;28;20197;-73
2022/10/11 00:07:42;;;;;;;7.87;1.90;;;9.10;99.90;;;;;;5073271;28;20197;-72
2022/10/11 00:10:09;;;;;;;7.60;2.27;;;9.10;99.90;;;;;;5073359;28;20172;-73
2022/10/11 00:12:35;;;;;;;7.23;1.93;;;9.10;99.90;;;;;;5073276;28;20536;-71
2022/10/11 00:15:01;;;;;;;8.90;3.20;;;9.00;99.90;;;;;;5072676;28;20899;-72
2022/10/11 00:17:27;;;;;;;7.53;2.80;;;9.00;99.90;;;;;;5072838;28;20400;-72
2022/10/11 00:19:53;;;;;;;2.40;2.20;;;9.00;99.90;;;;;;5073278;28;20389;-72
2022/10/11 00:22:18;;;;;;;4.43;1.80;;;9.10;99.90;;;;;;5073242;28;20171;-72
2022/10/11 00:24:44;;;;;;;6.97;1.80;;;9.00;99.90;;;;;;5072545;28;20192;-73
2022/10/11 00:27:09;;;;;;;3.40;1.73;;;9.00;99.90;;;;;;5073117;28;20242;-73
2022/10/11 00:29:37;;;;;;;3.73;1.97;;;9.00;99.90;;;;;;5073151;28;20661;-72
2022/10/11 00:32:03;;;;;;;5.27;2.23;;;9.00;99.90;;;;;;5073148;28;20165;-72
2022/10/11 00:34:29;;;;;;;5.83;2.30;;;8.90;99.90;;;;;;5071832;28;20414;-73
2022/10/11 00:36:54;;;;;;;7.73;4.13;;;9.00;99.90;;;;;;5072940;28;20434;-72
2022/10/11 00:39:20;;;;;;;2.43;2.23;;;9.00;99.90;;;;;;5073153;28;20531;-72
2022/10/11 00:41:48;;;;;;;5.47;2.00;;;8.90;99.90;;;;;;5072961;28;20162;-73
2022/10/11 00:44:18;;;;;;;7.53;2.50;;;8.90;99.90;;;;;;5072355;28;20619;-72
2022/10/11 00:47:06;;;;;;;7.83;2.27;;;8.90;99.90;;;;;;5072622;28;20481;-73
2022/10/11 00:49:48;;;;;;;5.50;2.00;;;8.90;99.90;;;;;;5072844;28;20460;-72
2022/10/11 00:52:32;;;;;;;3.87;2.17;;;8.90;99.90;;;;;;5072403;28;20832;-72
2022/10/11 00:55:01;;;;;;;4.10;2.10;;;8.90;99.90;;;;;;5072023;28;20379;-72
2022/10/11 00:57:32;;;;;;;4.97;2.50;;;8.90;99.90;;;;;;5071502;28;20390;-73
2022/10/11 00:59:59;;;;;;;5.77;1.87;;;8.90;99.90;;;;;;5072859;28;20854;-72
2022/10/11 01:02:25;;;;;;;2.47;2.23;;;8.90;99.90;;;;;;5075234;28;20420;-73
2022/10/11 01:04:50;;;;;;;7.10;2.30;;;8.90;99.90;;;;;;5075484;28;20833;-73
2022/10/11 01:07:18;;;;;;;3.83;1.63;;;8.90;99.90;;;;;;5092345;28;20398;-72
2022/10/11 01:09:44;;;;;;;11.13;2.00;;;8.90;99.90;;;;;;5075889;28;20815;-73
2022/10/11 01:12:23;;;;;;;10.83;2.30;;;8.80;99.90;;;;;;5076165;28;20432;-72
2022/10/11 01:15:22;;;;;;;3.97;1.90;;;8.80;99.90;;;;;;5075453;28;20519;-72
2022/10/11 01:17:58;;;;;;;5.50;2.27;;;8.80;99.90;;;;;;5076316;28;20753;-71
2022/10/11 01:20:48;;;;;;;10.23;2.00;;;8.70;99.90;;;;;;5076180;28;20410;-72
2022/10/11 01:23:49;;;;;;;14.40;2.70;;;8.70;99.90;;;;;;5076006;28;20437;-71
2022/10/11 01:26:23;;;;;;;2.90;1.60;;;8.70;99.90;;;;;;5076008;28;20533;-71
2022/10/11 01:29:05;;;;;;;6.57;2.07;;;8.70;99.90;;;;;;5074119;28;20455;-73
2022/10/11 01:31:52;;;;;;;6.50;1.90;;;8.70;99.90;;;;;;5076100;28;20395;-72
2022/10/11 01:34:30;;;;;;;5.80;2.43;;;8.70;99.90;;;;;;5075293;28;20401;-72
2022/10/11 01:37:09;;;;;;;7.30;1.93;;;8.70;99.90;;;;;;5075776;28;20387;-72
2022/10/11 01:39:42;;;;;;;4.10;2.20;;;8.70;99.90;;;;;;5075806;28;20501;-72
2022/10/11 01:42:11;;;;;;;2.80;2.03;;;8.70;99.90;;;;;;5074743;28;20443;-72
2022/10/11 01:44:38;;;;;;;2.10;1.57;;;8.70;99.90;;;;;;5075116;28;20461;-72
2022/10/11 01:47:04;;;;;;;10.63;2.33;;;8.70;99.90;;;;;;5075067;28;20435;-73
2022/10/11 01:49:30;;;;;;;4.33;1.67;;;8.70;99.90;;;;;;5074164;28;20611;-72
2022/10/11 01:51:59;;;;;;;3.60;1.93;;;8.70;99.90;;;;;;5075670;28;20241;-72
2022/10/11 01:54:31;;;;;;;6.63;2.33;;;8.70;99.90;;;;;;5074957;28;20162;-72
2022/10/11 01:57:05;;;;;;;5.63;2.10;;;8.70;99.90;;;;;;5075308;28;20890;-74
2022/10/11 01:59:37;;;;;;;6.07;2.10;;;8.70;99.90;;;;;;5075361;28;20497;-72
2022/10/11 02:02:14;;;;;;;5.00;2.53;;;8.70;99.90;;;;;;5075422;28;20403;-72
2022/10/11 02:04:47;;;;;;;14.33;2.23;;;8.80;99.90;;;;;;5073226;28;20507;-72
2022/10/11 02:07:44;;;;;;;2.77;1.57;;;8.70;99.90;;;;;;5073802;28;20415;-72
2022/10/11 02:10:34;;;;;;;3.60;2.20;;;8.70;99.90;;;;;;5067723;28;20412;-72
2022/10/11 02:13:09;;;;;;;2.90;2.00;;;8.70;99.90;;;;;;5073885;28;20753;-73
2022/10/11 02:15:38;;;;;;;2.37;2.13;;;8.70;99.90;;;;;;5074233;28;20408;-72
2022/10/11 02:18:08;;;;;;;5.53;1.90;;;8.70;99.90;;;;;;5075201;28;20879;-72
2022/10/11 02:20:37;;;;;;;7.70;1.80;;;8.60;99.90;;;;;;5074767;28;20371;-72
2022/10/11 02:23:09;;;;;;;4.87;2.60;;;8.70;99.90;;;;;;5074146;28;20382;-71
2022/10/11 02:25:36;;;;;;;5.23;1.80;;;8.60;99.90;;;;;;5074134;28;20916;-72
2022/10/11 02:28:08;;;;;;;3.20;1.60;;;8.60;99.90;;;;;;5074841;28;20930;-72
2022/10/11 02:30:35;;;;;;;1.57;1.47;;;8.60;99.90;;;;;;5074934;28;20395;-72
2022/10/11 02:33:04;;;;;;;6.97;2.57;;;8.50;99.90;;;;;;5074837;28;20391;-72
2022/10/11 02:35:35;;;;;;;4.47;1.90;;;8.50;99.90;;;;;;5073911;28;20427;-72
2022/10/11 02:38:16;;;;;;;3.20;2.63;;;8.50;99.90;;;;;;5073197;28;20414;-72
2022/10/11 02:40:45;;;;;;;12.07;3.40;;;8.50;99.90;;;;;;5090158;28;20905;-72
2022/10/11 02:43:17;;;;;;;4.03;2.50;;;8.40;99.90;;;;;;5074571;28;20937;-72
2022/10/11 02:45:48;;;;;;;7.50;4.00;;;8.40;99.90;;;;;;5073645;28;20453;-72
2022/10/11 02:48:14;;;;;;;6.13;2.67;;;8.40;99.90;;;;;;5074519;28;20432;-71
2022/10/11 02:50:41;;;;;;;14.20;2.47;;;8.40;99.90;;;;;;5074554;28;20401;-72
2022/10/11 02:53:07;;;;;;;2.43;2.23;;;8.40;99.90;;;;;;5074278;28;20386;-71
2022/10/11 02:55:33;;;;;;;5.40;2.60;;;8.40;99.90;;;;;;5073134;28;20424;-72
2022/10/11 02:57:59;;;;;;;3.47;2.57;;;8.30;99.90;;;;;;5074426;28;20873;-72
2022/10/11 03:00:25;;;;;;;4.30;2.53;;;8.30;99.90;;;;;;5074357;28;20619;-72
2022/10/11 03:02:51;;;;;;;4.17;1.90;;;8.40;99.90;;;;;;5074070;28;20185;-72
2022/10/11 03:05:17;;;;;;;3.70;1.70;;;8.30;99.90;;;;;;5073399;28;20190;-72
2022/10/11 03:07:42;;;;;;;6.17;2.23;;;8.30;99.90;;;;;;5073841;28;20406;-72
2022/10/11 03:10:10;;;;;;;9.57;2.40;;;8.20;99.90;;;;;;5074143;28;20436;-72
2022/10/11 03:12:35;;;;;;;6.60;2.23;;;8.20;99.90;;;;;;5073976;28;20399;-72
2022/10/11 03:15:01;;;;;;;5.27;2.00;;;8.20;99.90;;;;;;5073074;28;20509;-72
2022/10/11 03:17:27;;;;;;;7.73;2.00;;;8.20;99.90;;;;;;5074055;28;20176;-72
2022/10/11 03:19:54;;;;;;;12.47;2.23;;;8.20;99.90;;;;;;5073908;28;20530;-73
2022/10/11 03:22:20;;;;;;;7.57;2.03;;;8.20;99.90;;;;;;5073929;28;20169;-70
2022/10/11 03:24:45;;;;;;;8.80;2.30;;;8.20;99.90;;;;;;5072606;28;20411;-71
2022/10/11 03:27:11;;;;;;;5.73;2.37;;;8.20;99.90;;;;;;5073943;28;20719;-72
2022/10/11 03:29:37;;;;;;;8.53;3.30;;;8.20;99.90;;;;;;5073613;28;20199;-73
2022/10/11 03:32:03;;;;;;;5.57;2.20;;;8.20;99.90;;;;;;5072701;28;20456;-71
2022/10/11 03:34:29;;;;;;;23.00;3.33;;;8.30;99.90;;;;;;5072648;28;20568;-71
2022/10/11 03:36:54;;;;;;;4.77;2.57;;;8.30;99.90;;;;;;5073435;28;20789;-72
2022/10/11 03:39:20;;;;;;;8.17;2.57;;;8.40;99.90;;;;;;5072344;28;20263;-71
2022/10/11 03:41:46;;;;;;;3.40;2.00;;;8.40;99.90;;;;;;5073552;28;20561;-73
2022/10/11 03:44:11;;;;;;;8.30;2.60;;;8.40;99.90;;;;;;5072798;28;20182;-72
2022/10/11 03:46:37;;;;;;;3.20;2.60;;;8.30;99.90;;;;;;5073593;28;20218;-72
2022/10/11 03:49:03;;;;;;;3.50;2.27;;;8.30;99.90;;;;;;5073511;28;20376;-72
2022/10/11 03:51:30;;;;;;;4.67;2.10;;;8.30;99.90;;;;;;5088611;28;20225;-71
2022/10/11 03:53:55;;;;;;;5.77;3.10;;;8.20;99.90;;;;;;5071456;28;20596;-72
2022/10/11 03:56:21;;;;;;;12.90;2.80;;;8.20;99.90;;;;;;5089117;28;20458;-72
2022/10/11 03:58:46;;;;;;;4.30;2.03;;;8.20;99.90;;;;;;5073632;28;20227;-72
2022/10/11 04:01:12;;;;;;;11.63;3.20;;;8.20;99.90;;;;;;5072008;28;20178;-72
2022/10/11 04:03:38;;;;;;;10.87;2.30;;;8.20;99.90;;;;;;5072639;28;20194;-73
2022/10/11 04:06:04;;;;;;;5.27;2.60;;;8.20;99.90;;;;;;5073082;28;20192;-72
2022/10/11 04:08:29;;;;;;;8.87;2.67;;;8.20;99.90;;;;;;5072764;28;20655;-72
2022/10/11 04:10:55;;;;;;;3.33;2.60;;;8.20;99.90;;;;;;5073385;28;20404;-71
2022/10/11 04:13:21;;;;;;;8.40;3.50;;;8.10;99.90;;;;;;5088672;28;20639;-72
2022/10/11 04:15:46;;;;;;;8.03;3.50;;;8.10;99.90;;;;;;5072870;28;20198;-72
2022/10/11 04:18:12;;;;;;;9.70;3.00;;;8.00;99.90;;;;;;5072026;28;20185;-73
2022/10/11 04:20:38;;;;;;;5.60;2.40;;;8.00;99.90;;;;;;5073184;28;20171;-72
2022/10/11 04:23:03;;;;;;;7.90;3.20;;;7.90;99.90;;;;;;5073315;28;20181;-73
2022/10/11 04:25:29;;;;;;;11.97;3.00;;;7.90;99.90;;;;;;5072100;28;20198;-72
2022/10/11 04:27:55;;;;;;;9.53;2.87;;;7.90;99.90;;;;;;5073262;28;20203;-72
2022/10/11 04:30:21;;;;;;;6.03;2.97;;;7.90;99.90;;;;;;5072999;28;20193;-72
2022/10/11 04:32:46;;;;;;;9.60;2.67;;;7.90;99.90;;;;;;5073183;28;20654;-71
2022/10/11 04:35:12;;;;;;;4.00;2.80;;;7.90;99.90;;;;;;5072261;28;20188;-73
2022/10/11 04:37:38;;;;;;;3.83;2.03;;;7.90;99.90;;;;;;5076239;28;20163;-72
2022/10/11 04:40:06;;;;;;;11.73;2.83;;;7.90;99.90;;;;;;5075957;28;20410;-71
2022/10/11 04:42:31;;;;;;;4.73;2.23;;;7.90;99.90;;;;;;5075105;28;20626;-73
2022/10/11 04:44:57;;;;;;;7.50;2.90;;;7.90;99.90;;;;;;5076098;28;20437;-72
2022/10/11 04:47:22;;;;;;;6.97;2.50;;;7.90;99.90;;;;;;5076840;28;20182;-72
2022/10/11 04:49:48;;;;;;;13.40;3.87;;;7.90;99.90;;;;;;5076639;28;20235;-72
2022/10/11 04:52:14;;;;;;;2.67;2.47;;;7.80;99.90;;;;;;5076660;28;20170;-74
2022/10/11 04:54:39;;;;;;;3.87;2.37;;;7.80;99.90;;;;;;5074901;28;20269;-72
2022/10/11 04:57:05;;;;;;;4.13;2.97;;;7.90;99.90;;;;;;5075503;28;20275;-72
2022/10/11 04:59:31;;;;;;;6.60;3.47;;;7.80;99.90;;;;;;5076346;28;20179;-71
2022/10/11 05:01:56;;;;;;;9.43;5.80;;;7.90;99.90;;;;;;5091889;28;20223;-72
2022/10/11 05:04:22;;;;;;;10.40;3.50;;;7.90;99.90;;;;;;5075787;28;20182;-72
2022/10/11 05:06:48;;;;;;;14.00;3.40;;;7.80;99.90;;;;;;5074956;28;20200;-72
2022/10/11 05:09:13;;;;;;;7.67;2.70;;;7.80;99.90;;;;;;5075118;28;20574;-71
2022/10/11 05:11:39;;;;;;;9.83;2.80;;;7.80;99.90;;;;;;5076478;28;20167;-72
2022/10/11 05:14:05;;;;;;;5.87;2.67;;;7.80;99.90;;;;;;5074318;28;20171;-72
2022/10/11 05:16:30;;;;;;;10.90;3.43;;;7.80;99.90;;;;;;5076148;28;20200;-72
2022/10/11 05:18:56;;;;;;;10.63;3.07;;;7.80;99.90;;;;;;5091530;28;20208;-72
2022/10/11 05:21:24;;;;;;;5.33;2.40;;;7.80;99.90;;;;;;5076295;28;20172;-71
2022/10/11 05:23:52;;;;;;;11.00;3.07;;;7.80;99.90;;;;;;5075414;28;20162;-71
2022/10/11 05:26:19;;;;;;;10.27;2.73;;;7.80;99.90;;;;;;5076116;28;20424;-72
2022/10/11 05:28:45;;;;;;;4.10;2.37;;;7.80;99.90;;;;;;5075837;28;20577;-72
2022/10/11 05:31:12;;;;;;;4.70;2.20;;;7.70;99.90;;;;;;5075904;28;20389;-72
2022/10/11 05:33:37;;;;;;;8.37;2.30;;;7.80;99.90;;;;;;5074074;28;20508;-73
2022/10/11 05:36:04;;;;;;;4.37;2.20;;;7.80;99.90;;;;;;5075516;28;20527;-72
2022/10/11 05:38:30;;;;;;;6.63;2.70;;;7.80;99.90;;;;;;5075858;28;20181;-73
2022/10/11 05:40:59;;;;;;;6.40;4.27;;;7.80;99.90;;;;;;5074602;28;20383;-71
2022/10/11 05:43:25;;;;;;;6.97;2.87;;;7.80;99.90;;;;;;5074322;28;20504;-77
2022/10/11 05:45:51;;;;;;;5.53;2.50;;;7.70;99.90;;;;;;5074233;28;20511;-72
2022/10/11 05:48:16;;;;;;;7.07;3.20;;;7.80;99.90;;;;;;5075115;28;20194;-71
2022/10/11 05:50:42;;;;;;;9.17;2.80;;;7.80;99.90;;;;;;5075711;28;20216;-72
2022/10/11 05:53:08;;;;;;;7.83;3.60;;;7.80;99.90;;;;;;5075134;28;20163;-74
2022/10/11 05:55:41;;;;;;;3.80;3.07;;;7.80;99.90;;;;;;5074701;28;20187;-71
2022/10/11 05:58:14;;;;;;;7.40;3.00;;;7.80;99.90;;;;;;5075517;28;20730;-70
2022/10/11 06:00:40;;;;;;;3.90;2.53;;;7.70;99.90;;;;;;5075407;28;20430;-71
2022/10/11 06:03:07;;;;;;;9.03;2.57;;;7.70;99.90;;;;;;5075201;28;20758;-71
2022/10/11 06:05:34;;;;;;;7.43;2.70;;;7.70;99.90;;;;;;5073296;28;20862;-71
2022/10/11 06:08:00;;;;;;;7.87;3.20;;;7.70;99.90;;;;;;5075344;28;20452;-70
2022/10/11 06:10:25;;;;;;;6.20;3.50;;;7.80;99.90;;;;;;5073764;28;20431;-72
2022/10/11 06:12:51;;;;;;;6.83;2.33;;;7.80;99.90;;;;;;5074206;28;20409;-71
2022/10/11 06:15:17;;;;;;;6.60;2.57;;;7.80;99.90;;;;;;5074197;28;20195;-71
2022/10/11 06:17:43;;;;;;;6.93;2.87;;;7.80;99.90;;;;;;5090964;28;20179;-71
2022/10/11 06:20:09;;;;;;;11.33;3.30;;;7.80;99.90;;;;;;5075398;28;20178;-72
2022/10/11 06:22:34;;;;;;;8.80;2.23;;;7.80;99.90;;;;;;5075069;28;20173;-71
2022/10/11 06:25:00;;;;;;;7.37;3.33;;;7.80;99.90;;;;;;5074142;28;20412;-72
2022/10/11 06:27:26;;;;;;;5.50;2.70;;;7.90;99.90;;;;;;5074944;28;20166;-72
2022/10/11 06:29:52;;;;;;;17.30;3.90;;;8.00;99.90;;;;;;5073235;28;20948;-72
2022/10/11 06:32:17;;;;;;;3.93;3.33;;;8.00;99.90;;;;;;5074860;28;20409;-72
2022/10/11 06:34:43;;;;;;;4.83;2.97;;;8.10;99.90;;;;;;5074323;28;20176;-72
2022/10/11 06:37:09;;;;;;;8.47;2.97;;;8.10;99.90;;;;;;5074867;28;20550;-72
2022/10/11 06:39:34;;;;;;;11.80;3.77;;;8.10;99.90;;;;;;5074711;28;20553;-71
2022/10/11 06:42:00;;;;;;;7.43;3.40;;;8.20;99.90;;;;;;5074746;28;20583;-72
2022/10/11 06:44:26;;;;;;;11.30;3.10;;;8.20;99.90;;;;;;5073979;28;20631;-71
2022/10/11 06:46:52;;;;;;;3.53;3.23;;;8.20;99.90;;;;;;5074571;28;20444;-72
2022/10/11 06:49:17;;;;;;;12.03;3.57;;;8.20;99.90;;;;;;5074100;28;20200;-72
2022/10/11 06:51:43;;;;;;;14.07;6.17;;;8.20;99.90;;;;;;5074391;28;20182;-72
2022/10/11 06:54:09;;;;;;;15.73;4.67;;;8.30;99.90;;;;;;5073738;28;20531;-72
2022/10/11 06:56:34;;;;;;;9.40;4.70;;;8.30;99.90;;;;;;5074306;28;20212;-71
2022/10/11 06:59:00;;;;;;;5.80;2.73;;;8.40;99.90;;;;;;5089345;28;20676;-71
2022/10/11 07:01:26;;;;;;;8.80;3.53;;;8.50;99.90;;;;;;5072926;28;20186;-73
2022/10/11 07:03:54;;;;;;;11.43;3.30;;;8.50;99.90;;;;;;5073434;28;20202;-71
2022/10/11 07:06:23;;;;;;;7.90;3.37;;;8.70;99.90;;;;;;5073632;28;20421;-72
2022/10/11 07:08:48;;;;;;;19.23;2.83;;;8.70;99.90;;;;;;5073902;28;20503;-72
2022/10/11 07:11:20;;;;;;;8.97;3.57;;;8.70;99.90;;;;;;5089641;28;20422;-71
2022/10/11 07:13:51;;;;;;;6.47;2.70;;;8.70;99.90;;;;;;5072145;28;20419;-72
2022/10/11 07:16:18;;;;;;;12.30;2.80;;;8.70;99.90;;;;;;5073858;28;20427;-71
2022/10/11 07:18:45;;;;;;;2.97;2.40;;;8.70;99.90;;;;;;5072944;28;20417;-71
2022/10/11 07:21:12;;;;;;;7.43;2.70;;;8.70;99.90;;;;;;5073925;28;20766;-72
2022/10/11 07:23:39;;;;;;;6.10;2.67;;;8.70;99.90;;;;;;5072879;28;20418;-72
2022/10/11 07:26:05;;;;;;;9.17;3.20;;;8.70;99.90;;;;;;5073235;28;20429;-75
2022/10/11 07:28:33;;;;;;;11.50;3.10;;;8.90;99.90;;;;;;5073865;28;20481;-72
2022/10/11 07:31:23;;;;;;;6.03;2.50;;;9.00;99.90;;;;;;5073897;28;20741;-72
2022/10/11 07:33:49;;;;;;;8.10;2.10;;;9.10;99.90;;;;;;5072681;28;20789;-74
2022/10/11 07:36:15;;;;;;;5.23;2.90;;;9.20;99.90;;;;;;5073471;28;20419;-72
2022/10/11 07:38:42;;;;;;;11.20;3.57;;;9.20;99.90;;;;;;5072459;28;20575;-72
2022/10/11 07:41:08;;;;;;;7.93;2.17;;;9.30;99.90;;;;;;5073457;28;20410;-73
2022/10/11 07:43:35;;;;;;;5.37;2.27;;;9.30;99.90;;;;;;5073071;28;20412;-71
2022/10/11 07:46:02;;;;;;;4.37;2.60;;;9.40;99.90;;;;;;5072322;28;20410;-71
2022/10/11 07:48:33;;;;;;;7.90;3.33;;;9.40;99.90;;;;;;5073534;28;20455;-72
2022/10/11 07:51:04;;;;;;;11.97;2.30;;;9.50;99.90;;;;;;5073444;28;20413;-72
2022/10/11 07:53:30;;;;;;;14.80;2.73;;;9.60;99.90;;;;;;5073202;28;20481;-71
2022/10/11 07:55:59;;;;;;;6.07;2.73;;;9.80;99.90;;;;;;5072854;28;20836;-72
2022/10/11 07:58:25;;;;;;;10.80;2.80;;;9.80;99.90;;;;;;5073371;28;20175;-72
2022/10/11 08:00:54;;;;;;;4.87;2.97;;;9.90;99.90;;;;;;5073459;28;20406;-72
2022/10/11 08:03:20;;;;;;;6.87;2.40;;;9.80;99.90;;;;;;5072772;28;20192;-73
2022/10/11 08:05:45;;;;;;;7.73;3.27;;;9.80;99.90;;;;;;5072709;28;20944;-71
2022/10/11 08:08:11;;;;;;;4.90;2.80;;;9.90;99.90;;;;;;5073074;28;20286;-73
2022/10/11 08:10:38;;;;;;;6.97;2.97;;;9.90;99.90;;;;;;5075813;28;20184;-72
2022/10/11 08:13:04;;;;;;;10.80;3.70;;;10.00;99.90;;;;;;5079904;28;20181;-72
2022/10/11 08:15:30;;;;;;;5.87;2.83;;;10.00;99.90;;;;;;5079231;28;20777;-72
2022/10/11 08:17:55;;;;;;;10.87;4.80;;;10.10;99.90;;;;;;5079851;28;20411;-73
2022/10/11 08:20:21;;;;;;;11.97;3.43;;;10.20;99.90;;;;;;5079772;28;20170;-72
2022/10/11 08:22:47;;;;;;;7.90;2.73;;;10.30;99.90;;;;;;5078335;28;20173;-72
2022/10/11 08:25:12;;;;;;;6.90;2.53;;;10.30;99.90;;;;;;5079265;28;20193;-71
2022/10/11 08:27:38;;;;;;;9.23;2.60;;;10.40;99.90;;;;;;5080048;28;20252;-72
2022/10/11 08:30:04;;;;;;;6.20;2.90;;;10.40;99.90;;;;;;5079959;28;20188;-72
2022/10/11 08:32:30;;;;;;;6.30;2.80;;;10.50;99.90;;;;;;5079849;28;20177;-72
2022/10/11 08:34:56;;;;;;;14.33;3.30;;;10.60;99.90;;;;;;5079002;28;20415;-72
2022/10/11 08:37:21;;;;;;;6.67;2.50;;;10.80;99.90;;;;;;5079907;28;20184;-73
2022/10/11 08:39:47;;;;;;;6.80;2.87;;;10.90;99.90;;;;;;5079812;28;20172;-69
2022/10/11 08:42:22;;;;;;;2.83;2.13;;;11.00;99.90;;;;;;5079228;28;20162;-71
2022/10/11 08:44:55;;;;;;;19.07;2.97;;;11.10;99.90;;;;;;5077671;28;20169;-70
2022/10/11 08:47:48;;;;;;;5.10;2.43;;;11.30;99.90;;;;;;5079705;28;20408;-69
2022/10/11 08:50:20;;;;;;;5.73;2.33;;;11.40;99.90;;;;;;5077571;28;20906;-70
2022/10/11 08:52:52;;;;;;;9.00;2.47;;;11.50;99.90;;;;;;5079619;28;20370;-70
2022/10/11 08:55:30;;;;;;;12.23;2.10;;;11.50;99.90;;;;;;5078783;28;20414;-69
2022/10/11 08:57:57;;;;;;;8.10;2.70;;;11.80;99.90;;;;;;5079640;28;20363;-70
2022/10/11 09:00:24;;;;;;;6.43;2.23;;;12.00;99.90;;;;;;5079079;28;20384;-71
2022/10/11 09:02:56;;;;;;;6.83;2.33;;;12.10;99.90;;;;;;5079332;28;20448;-69
2022/10/11 09:05:26;;;;;;;5.93;2.13;;;12.30;99.90;;;;;;5078788;28;20499;-69
2022/10/11 09:07:54;;;;;;;6.83;1.90;;;12.50;99.90;;;;;;5079342;28;20693;-70
2022/10/11 09:10:43;;;;;;;4.63;2.10;;;12.80;98.20;;;;;;5079326;28;20908;-71
2022/10/11 09:13:51;;;;;;;7.03;1.80;;;13.10;93.20;;;;;;5079364;28;20371;-69
2022/10/11 09:16:49;;;;;;;10.67;2.20;;;13.30;76.50;;;;;;5079488;28;20465;-69
2022/10/11 09:19:28;;;;;;;6.80;1.63;;;13.70;55.60;;;;;;5078983;28;20397;-71
2022/10/11 09:21:59;;;;;;;7.40;2.20;;;14.00;38.40;;;;;;5077500;28;20379;-70
2022/10/11 09:24:59;;;;;;;3.77;2.33;;;14.40;32.50;;;;;;5075413;28;20359;-71
2022/10/11 09:27:30;;;;;;;2.90;1.87;;;14.50;1.00;;;;;;5066935;28;20387;-70
2022/10/11 09:30:11;;;;;;;8.80;2.20;;;14.60;1.00;;;;;;5076046;28;20452;-70
2022/10/11 09:32:41;;;;;;;3.37;1.70;;;14.70;1.00;;;;;;5076142;28;20396;-71
2022/10/11 09:35:16;;;;;;;8.27;1.83;;;14.80;1.00;;;;;;5073833;28;20529;-70
2022/10/11 09:38:03;;;;;;;4.70;2.10;;;14.80;1.00;;;;;;5075469;28;20391;-70
2022/10/11 09:40:39;;;;;;;3.53;1.63;;;14.90;1.00;;;;;;5076005;28;20397;-71
2022/10/11 09:43:04;;;;;;;6.80;2.40;;;15.10;1.00;;;;;;5075818;28;20419;-70
2022/10/11 09:45:30;;;;;;;9.43;2.70;;;15.30;1.00;;;;;;5075017;28;20379;-70
2022/10/11 09:47:58;;;;;;;11.83;3.33;;;15.60;1.00;;;;;;5075790;28;20166;-70
2022/10/11 09:50:27;;;;;;;8.63;1.70;;;15.70;1.00;;;;;;5075698;28;20174;-70
2022/10/11 09:52:58;;;;;;;3.33;2.00;;;16.10;1.00;;;;;;5075091;28;20424;-71
2022/10/11 09:55:34;;;;;;;6.40;2.00;;;16.20;1.00;;;;;;5074973;28;20511;-70
2022/10/11 09:58:01;;;;;;;3.83;1.83;;;16.60;1.00;;;;;;5074264;28;20416;-71
2022/10/11 10:00:31;;;;;;;4.00;2.00;;;17.00;1.00;;;;;;5075470;28;20392;-70
2022/10/11 10:03:01;;;;;;;4.57;1.80;;;17.40;1.00;;;;;;5075296;28;20451;-70
2022/10/11 10:05:30;;;;;;;11.10;3.93;;;17.40;1.00;;;;;;5074624;28;20928;-70
2022/10/11 10:08:23;;;;;;;3.30;1.63;;;17.00;1.00;;;;;;5075381;28;20487;-71
2022/10/11 10:10:55;;;;;;;4.83;1.80;;;16.90;1.00;;;;;;5074837;28;20424;-71
2022/10/11 10:13:23;;;;;;;4.83;1.70;;;16.50;1.00;;;;;;5075023;28;20451;-71
2022/10/11 10:15:56;;;;;;;4.73;1.30;;;16.20;1.00;;;;;;5074606;28;20417;-71
2022/10/11 10:18:24;;;;;;;6.77;1.97;;;15.80;1.00;;;;;;5075295;28;20509;-70
2022/10/11 10:20:55;;;;;;;7.77;1.90;;;15.40;1.00;;;;;;5075096;28;20920;-70
2022/10/11 10:23:33;;;;;;;5.73;1.60;;;15.80;1.00;;;;;;5074897;28;20389;-70
2022/10/11 10:26:21;;;;;;;8.23;2.50;;;16.10;1.00;;;;;;5074427;28;20412;-69
2022/10/11 10:29:08;;;;;;;5.80;1.80;;;16.50;1.00;;;;;;5073359;28;20811;-69
2022/10/11 10:31:46;;;;;;;10.63;2.43;;;16.90;1.00;;;;;;5074694;28;20427;-69
2022/10/11 10:34:19;;;;;;;8.57;2.30;;;16.70;1.00;;;;;;5071724;28;20985;-70
2022/10/11 10:36:56;;;;;;;5.73;1.77;;;16.50;1.00;;;;;;5073571;28;20444;-70
2022/10/11 10:39:43;;;;;;;6.33;1.63;;;16.30;1.00;;;;;;5074688;28;20883;-71
2022/10/11 10:42:17;;;;;;;10.20;2.13;;;16.20;1.00;;;;;;5073503;28;20499;-71
2022/10/11 10:44:52;;;;;;;4.07;1.40;;;16.00;1.00;;;;;;5073509;28;20404;-73
2022/10/11 10:47:53;;;;;;;5.53;1.93;;;15.80;1.00;;;;;;5074390;28;20404;-71
2022/10/11 10:50:25;;;;;;;8.90;1.97;;;15.50;1.00;;;;;;5071338;28;20469;-71
2022/10/11 10:53:10;;;;;;;4.37;1.63;;;15.30;1.00;;;;;;5074530;28;20745;-70
2022/10/11 10:55:46;;;;;;;12.83;2.43;;;15.10;1.00;;;;;;5072317;28;20815;-69
2022/10/11 10:58:34;;;;;;;4.00;1.80;;;15.30;1.00;;;;;;5074395;28;20457;-71
2022/10/11 11:01:31;;;;;;;10.00;1.50;;;15.50;1.00;;;;;;5074378;28;20913;-70
2022/10/11 11:04:09;;;;;;;9.43;1.77;;;15.50;1.00;;;;;;5073333;28;20435;-71
2022/10/11 11:06:48;;;;;;;4.00;2.00;;;15.30;1.00;;;;;;5073871;28;20424;-69
2022/10/11 11:09:29;;;;;;;8.30;2.10;;;15.10;1.00;;;;;;5074047;28;20535;-70
2022/10/11 11:12:03;;;;;;;4.60;2.33;;;15.00;1.00;;;;;;5074065;28;20397;-70
2022/10/11 11:14:42;;;;;;;8.50;1.93;;;14.60;1.00;;;;;;5073428;28;20411;-71
2022/10/11 11:17:42;;;;;;;9.97;2.13;;;14.50;1.00;;;;;;5074000;28;20404;-71
2022/10/11 11:20:23;;;;;;;16.60;2.80;;;14.40;1.00;;;;;;5036661;28;20834;-71
2022/10/11 11:22:52;;;;;;;4.10;2.20;;;14.30;1.00;;;;;;5073805;28;20400;-71
2022/10/11 11:25:33;;;;;;;7.43;2.40;;;14.30;1.00;;;;;;5072856;28;20474;-70
2022/10/11 11:28:02;;;;;;;7.23;2.20;;;14.40;1.00;;;;;;5073628;28;20516;-72
2022/10/11 11:30:54;;;;;;;7.83;2.10;;;14.40;1.00;;;;;;5073759;28;20397;-70
2022/10/11 11:33:46;;;;;;;3.60;1.87;;;14.20;1.00;;;;;;5073603;28;20952;-72
2022/10/11 11:36:22;;;;;;;4.83;2.83;;;14.20;1.00;;;;;;5073663;28;20416;-71
2022/10/11 11:38:56;;;;;;;10.40;2.73;;;14.30;1.00;;;;;;5073674;28;20621;-71
2022/10/11 11:41:36;;;;;;;12.80;2.10;;;14.20;1.00;;;;;;5073772;28;20491;-72
2022/10/11 11:44:09;;;;;;;8.20;2.10;;;14.20;1.00;;;;;;5071356;28;20423;-70
2022/10/11 11:46:43;;;;;;;13.43;1.80;;;14.20;1.00;;;;;;5073099;28;20423;-70
2022/10/11 11:49:36;;;;;;;3.70;2.23;;;14.10;1.00;;;;;;5072209;28;20991;-70
2022/10/11 11:52:05;;;;;;;9.50;1.90;;;14.00;1.00;;;;;;5068988;28;20427;-70
2022/10/11 11:54:49;;;;;;;13.37;2.33;;;13.90;1.00;;;;;;5072851;28;20379;-71
2022/10/11 11:57:31;;;;;;;2.57;1.30;;;13.80;1.00;;;;;;5072158;28;20743;-71
2022/10/11 12:00:00;;;;;;;6.53;3.27;;;13.70;1.00;;;;;;5072852;28;20461;-72
2022/10/11 12:02:40;;;;;;;8.27;1.90;;;13.60;1.00;;;;;;5073254;28;20403;-70
2022/10/11 12:05:07;;;;;;;4.43;1.50;;;13.50;1.00;;;;;;5072575;28;20455;-71
2022/10/11 12:07:54;;;;;;;6.80;1.70;;;13.80;1.00;;;;;;5073292;28;20496;-70
2022/10/11 12:10:27;;;;;;;3.73;1.73;;;14.00;1.00;;;;;;5073306;28;20746;-71
2022/10/11 12:13:07;;;;;;;11.00;1.93;;;14.10;1.00;;;;;;5072300;28;20420;-71
2022/10/11 12:15:34;;;;;;;8.90;1.93;;;14.40;1.00;;;;;;5072448;28;20387;-70
2022/10/11 12:18:12;;;;;;;2.00;0.90;;;14.50;1.00;;;;;;5072898;28;20412;-71
2022/10/11 12:20:40;;;;;;;10.23;1.20;;;14.80;1.00;;;;;;5073067;28;20420;-72
2022/10/11 12:23:27;;;;;;;2.60;1.90;;;15.00;1.00;;;;;;5073228;28;20753;-72
2022/10/11 12:26:17;;;;;;;4.40;1.90;;;15.20;1.00;;;;;;5072639;28;20452;-72
2022/10/11 12:28:47;;;;;;;2.03;1.40;;;15.30;1.00;;;;;;5073013;28;21006;-71
2022/10/11 12:31:25;;;;;;;6.03;1.80;;;15.10;1.00;;;;;;5073216;28;20440;-70
2022/10/11 12:34:13;;;;;;;2.23;1.20;;;15.00;1.00;;;;;;5072160;28;20754;-72
2022/10/11 12:36:45;;;;;;;5.03;1.80;;;15.00;1.00;;;;;;5071558;28;20468;-71
2022/10/11 12:39:20;;;;;;;6.57;2.00;;;14.90;1.00;;;;;;5073035;28;20402;-70
2022/10/11 12:41:49;;;;;;;6.97;2.20;;;14.80;1.00;;;;;;5073263;28;20529;-70
2022/10/11 12:44:17;;;;;;;5.10;2.00;;;14.70;1.00;;;;;;5072331;28;20401;-71
2022/10/11 12:46:56;;;;;;;2.47;1.40;;;14.40;1.00;;;;;;5071830;28;20437;-70
2022/10/11 12:49:32;;;;;;;7.77;2.27;;;14.30;1.00;;;;;;5072887;28;20847;-70
2022/10/11 12:52:15;;;;;;;4.13;1.73;;;14.40;1.00;;;;;;5073091;28;20400;-70
2022/10/11 12:54:53;;;;;;;8.40;2.47;;;14.80;1.00;;;;;;5071741;28;20411;-70
2022/10/11 12:57:53;;;;;;;6.47;2.27;;;15.70;1.00;;;;;;5073796;28;20447;-71
2022/10/11 13:00:31;;;;;;;7.50;4.07;;;16.20;1.00;;;;;;5076533;28;20484;-72
2022/10/11 13:03:00;;;;;;;3.93;1.47;;;16.20;1.00;;;;;;5076480;28;20998;-70
2022/10/11 13:05:41;;;;;;;3.67;1.50;;;15.90;1.00;;;;;;5075787;28;20420;-70
2022/10/11 13:08:23;;;;;;;5.57;1.83;;;16.80;1.00;;;;;;5076388;28;20403;-71
2022/10/11 13:10:49;;;;;;;5.97;1.80;;;17.50;1.00;;;;;;5076344;28;20410;-70
2022/10/11 13:13:23;;;;;;;5.10;1.20;;;17.30;1.00;;;;;;5075235;28;20405;-71
2022/10/11 13:15:52;;;;;;;2.17;1.20;;;16.80;1.00;;;;;;5075289;28;20788;-70